Terminal Aerodrome Forecast
Issued by NWS

Home | Current Version | Previous Version | Text Only | Print | Product List | Glossary On
Versions: 1 2 3 4 5 6 7 8 9 10 11 12 13 14 15 16 17 18 19 20 21
000
FTUS43 KPAH 150500
TAFCGI
TAF
KCGI 150520Z 1506/1606 00000KT P6SM SCT060
     FM151530 19004KT P6SM SCT070 BKN100
     FM160200 23005KT P6SM SCT028 BKN050 PROB30 1603/1606 -SHRA=

USA.gov is the U.S. government's official web portal to all federal, state and local government web resources and services.